sensor_id;sensor_type;location;lat;lon;timestamp;temperature;humidity
76996;DHT22;65929;49.062;10.338;2023-04-19T00:00:27;7.50;83.30
76996;DHT22;65929;49.062;10.338;2023-04-19T00:01:28;7.50;83.20
76996;DHT22;65929;49.062;10.338;2023-04-19T00:02:29;7.50;83.20
76996;DHT22;65929;49.062;10.338;2023-04-19T00:03:32;7.50;83.10
76996;DHT22;65929;49.062;10.338;2023-04-19T00:04:33;7.50;83.20
76996;DHT22;65929;49.062;10.338;2023-04-19T00:05:34;7.50;83.10
76996;DHT22;65929;49.062;10.338;2023-04-19T00:06:35;7.40;83.20
76996;DHT22;65929;49.062;10.338;2023-04-19T00:07:37;7.40;83.20
76996;DHT22;65929;49.062;10.338;2023-04-19T00:08:38;7.50;83.10
76996;DHT22;65929;49.062;10.338;2023-04-19T00:09:39;7.40;83.30
76996;DHT22;65929;49.062;10.338;2023-04-19T00:10:40;7.40;83.40
76996;DHT22;65929;49.062;10.338;2023-04-19T00:11:41;7.40;83.40
76996;DHT22;65929;49.062;10.338;2023-04-19T00:12:42;7.40;83.40
76996;DHT22;65929;49.062;10.338;2023-04-19T00:13:43;7.40;83.10
76996;DHT22;65929;49.062;10.338;2023-04-19T00:14:44;7.40;83.20
76996;DHT22;65929;49.062;10.338;2023-04-19T00:15:45;7.40;83.20
76996;DHT22;65929;49.062;10.338;2023-04-19T00:16:46;7.40;83.30
76996;DHT22;65929;49.062;10.338;2023-04-19T00:17:47;7.40;83.30
76996;DHT22;65929;49.062;10.338;2023-04-19T00:18:49;7.40;83.20
76996;DHT22;65929;49.062;10.338;2023-04-19T00:19:50;7.40;83.20
76996;DHT22;65929;49.062;10.338;2023-04-19T00:20:51;7.40;83.10
76996;DHT22;65929;49.062;10.338;2023-04-19T00:21:52;7.40;83.10
76996;DHT22;65929;49.062;10.338;2023-04-19T00:22:53;7.40;83.30
76996;DHT22;65929;49.062;10.338;2023-04-19T00:23:54;7.40;83.30
76996;DHT22;65929;49.062;10.338;2023-04-19T00:24:55;7.40;83.20
76996;DHT22;65929;49.062;10.338;2023-04-19T00:25:56;7.40;83.20
76996;DHT22;65929;49.062;10.338;2023-04-19T00:26:57;7.40;83.40
76996;DHT22;65929;49.062;10.338;2023-04-19T00:27:58;7.40;83.40
76996;DHT22;65929;49.062;10.338;2023-04-19T00:28:59;7.40;83.20
76996;DHT22;65929;49.062;10.338;2023-04-19T00:30:01;7.40;83.30
76996;DHT22;65929;49.062;10.338;2023-04-19T00:31:01;7.40;83.30
76996;DHT22;65929;49.062;10.338;2023-04-19T00:32:03;7.40;83.20
76996;DHT22;65929;49.062;10.338;2023-04-19T00:33:05;7.40;83.20
76996;DHT22;65929;49.062;10.338;2023-04-19T00:34:13;7.40;83.20
76996;DHT22;65929;49.062;10.338;2023-04-19T00:35:14;7.30;83.30
76996;DHT22;65929;49.062;10.338;2023-04-19T00:36:15;7.30;83.30
76996;DHT22;65929;49.062;10.338;2023-04-19T00:37:16;7.30;83.50
76996;DHT22;65929;49.062;10.338;2023-04-19T00:38:17;7.20;83.40
76996;DHT22;65929;49.062;10.338;2023-04-19T00:39:18;7.20;83.40
76996;DHT22;65929;49.062;10.338;2023-04-19T00:40:19;7.20;83.50
76996;DHT22;65929;49.062;10.338;2023-04-19T00:41:20;7.20;83.60
76996;DHT22;65929;49.062;10.338;2023-04-19T00:42:21;7.20;83.60
76996;DHT22;65929;49.062;10.338;2023-04-19T00:43:22;7.20;83.60
76996;DHT22;65929;49.062;10.338;2023-04-19T00:44:23;7.20;83.60
76996;DHT22;65929;49.062;10.338;2023-04-19T00:45:24;7.20;83.70
76996;DHT22;65929;49.062;10.338;2023-04-19T00:46:25;7.20;83.70
76996;DHT22;65929;49.062;10.338;2023-04-19T00:47:27;7.20;83.60
76996;DHT22;65929;49.062;10.338;2023-04-19T00:48:28;7.20;83.60
76996;DHT22;65929;49.062;10.338;2023-04-19T00:49:31;7.20;83.70
76996;DHT22;65929;49.062;10.338;2023-04-19T00:50:32;7.20;83.80
76996;DHT22;65929;49.062;10.338;2023-04-19T00:51:35;7.20;83.90
76996;DHT22;65929;49.062;10.338;2023-04-19T00:52:36;7.20;83.80
76996;DHT22;65929;49.062;10.338;2023-04-19T00:53:37;7.20;83.80
76996;DHT22;65929;49.062;10.338;2023-04-19T00:54:42;7.20;83.80
76996;DHT22;65929;49.062;10.338;2023-04-19T00:55:45;7.20;83.90
76996;DHT22;65929;49.062;10.338;2023-04-19T00:56:46;7.20;84.00
76996;DHT22;65929;49.062;10.338;2023-04-19T00:57:47;7.20;83.90
76996;DHT22;65929;49.062;10.338;2023-04-19T00:58:48;7.20;83.80
76996;DHT22;65929;49.062;10.338;2023-04-19T00:59:49;7.20;83.70
76996;DHT22;65929;49.062;10.338;2023-04-19T01:01:57;7.20;83.70
76996;DHT22;65929;49.062;10.338;2023-04-19T01:02:57;7.20;83.70
76996;DHT22;65929;49.062;10.338;2023-04-19T01:03:59;7.20;83.70
76996;DHT22;65929;49.062;10.338;2023-04-19T01:05:02;7.20;83.80
76996;DHT22;65929;49.062;10.338;2023-04-19T01:06:04;7.20;83.90
76996;DHT22;65929;49.062;10.338;2023-04-19T01:07:05;7.10;83.70
76996;DHT22;65929;49.062;10.338;2023-04-19T01:08:06;7.20;83.80
76996;DHT22;65929;49.062;10.338;2023-04-19T01:09:07;7.10;83.90
76996;DHT22;65929;49.062;10.338;2023-04-19T01:10:09;7.10;83.80
76996;DHT22;65929;49.062;10.338;2023-04-19T01:11:10;7.00;83.90
76996;DHT22;65929;49.062;10.338;2023-04-19T01:12:11;7.00;83.80
76996;DHT22;65929;49.062;10.338;2023-04-19T01:13:12;7.00;84.00
76996;DHT22;65929;49.062;10.338;2023-04-19T01:14:13;7.00;84.00
76996;DHT22;65929;49.062;10.338;2023-04-19T01:15:14;7.00;84.00
76996;DHT22;65929;49.062;10.338;2023-04-19T01:16:15;7.00;84.10
76996;DHT22;65929;49.062;10.338;2023-04-19T01:17:16;7.00;84.20
76996;DHT22;65929;49.062;10.338;2023-04-19T01:18:17;6.90;84.30
76996;DHT22;65929;49.062;10.338;2023-04-19T01:19:19;6.90;84.30
76996;DHT22;65929;49.062;10.338;2023-04-19T01:20:22;6.90;84.40
76996;DHT22;65929;49.062;10.338;2023-04-19T01:21:23;6.90;84.30
76996;DHT22;65929;49.062;10.338;2023-04-19T01:22:25;6.80;84.40
76996;DHT22;65929;49.062;10.338;2023-04-19T01:23:27;6.80;84.50
76996;DHT22;65929;49.062;10.338;2023-04-19T01:24:28;6.70;84.70
76996;DHT22;65929;49.062;10.338;2023-04-19T01:25:29;6.70;84.70
76996;DHT22;65929;49.062;10.338;2023-04-19T01:26:30;6.60;85.00
76996;DHT22;65929;49.062;10.338;2023-04-19T01:27:31;6.60;85.30
76996;DHT22;65929;49.062;10.338;2023-04-19T01:28:33;6.60;85.30
76996;DHT22;65929;49.062;10.338;2023-04-19T01:29:34;6.60;85.50
76996;DHT22;65929;49.062;10.338;2023-04-19T01:30:35;6.60;85.60
76996;DHT22;65929;49.062;10.338;2023-04-19T01:31:36;6.60;85.70
76996;DHT22;65929;49.062;10.338;2023-04-19T01:32:37;6.50;85.70
76996;DHT22;65929;49.062;10.338;2023-04-19T01:33:38;6.50;85.80
76996;DHT22;65929;49.062;10.338;2023-04-19T01:34:39;6.50;85.80
76996;DHT22;65929;49.062;10.338;2023-04-19T01:35:40;6.50;85.90
76996;DHT22;65929;49.062;10.338;2023-04-19T01:36:41;6.50;86.00
76996;DHT22;65929;49.062;10.338;2023-04-19T01:37:43;6.50;86.00
76996;DHT22;65929;49.062;10.338;2023-04-19T01:38:44;6.50;86.00
76996;DHT22;65929;49.062;10.338;2023-04-19T01:39:47;6.50;86.10
76996;DHT22;65929;49.062;10.338;2023-04-19T01:40:48;6.40;86.20
76996;DHT22;65929;49.062;10.338;2023-04-19T01:41:49;6.50;86.10
76996;DHT22;65929;49.062;10.338;2023-04-19T01:42:50;6.40;86.10
76996;DHT22;65929;49.062;10.338;2023-04-19T01:43:51;6.40;86.20
76996;DHT22;65929;49.062;10.338;2023-04-19T01:44:52;6.40;86.20
76996;DHT22;65929;49.062;10.338;2023-04-19T01:45:53;6.40;86.20
76996;DHT22;65929;49.062;10.338;2023-04-19T01:46:54;6.40;86.40
76996;DHT22;65929;49.062;10.338;2023-04-19T01:47:55;6.40;86.30
76996;DHT22;65929;49.062;10.338;2023-04-19T01:48:56;6.40;86.30
76996;DHT22;65929;49.062;10.338;2023-04-19T01:49:57;6.40;86.40
76996;DHT22;65929;49.062;10.338;2023-04-19T01:50:58;6.30;86.40
76996;DHT22;65929;49.062;10.338;2023-04-19T01:51:59;6.30;86.60
76996;DHT22;65929;49.062;10.338;2023-04-19T01:53:01;6.20;86.70
76996;DHT22;65929;49.062;10.338;2023-04-19T01:54:02;6.20;86.70
76996;DHT22;65929;49.062;10.338;2023-04-19T01:55:04;6.20;86.70
76996;DHT22;65929;49.062;10.338;2023-04-19T01:56:05;6.10;86.90
76996;DHT22;65929;49.062;10.338;2023-04-19T01:57:06;6.10;87.00
76996;DHT22;65929;49.062;10.338;2023-04-19T01:58:07;6.00;87.10
76996;DHT22;65929;49.062;10.338;2023-04-19T01:59:09;6.00;87.20
76996;DHT22;65929;49.062;10.338;2023-04-19T02:00:11;6.00;87.30
76996;DHT22;65929;49.062;10.338;2023-04-19T02:01:12;6.00;87.60
76996;DHT22;65929;49.062;10.338;2023-04-19T02:02:13;6.00;87.70
76996;DHT22;65929;49.062;10.338;2023-04-19T02:03:13;6.00;87.70
76996;DHT22;65929;49.062;10.338;2023-04-19T02:04:14;5.90;87.70
76996;DHT22;65929;49.062;10.338;2023-04-19T02:05:15;5.90;87.70
76996;DHT22;65929;49.062;10.338;2023-04-19T02:06:16;5.90;87.90
76996;DHT22;65929;49.062;10.338;2023-04-19T02:07:17;5.90;87.90
76996;DHT22;65929;49.062;10.338;2023-04-19T02:08:20;5.90;87.90
76996;DHT22;65929;49.062;10.338;2023-04-19T02:09:21;5.90;88.00
76996;DHT22;65929;49.062;10.338;2023-04-19T02:10:22;5.90;88.00
76996;DHT22;65929;49.062;10.338;2023-04-19T02:11:23;5.90;88.00
76996;DHT22;65929;49.062;10.338;2023-04-19T02:12:24;6.00;87.90
76996;DHT22;65929;49.062;10.338;2023-04-19T02:13:25;6.00;87.90
76996;DHT22;65929;49.062;10.338;2023-04-19T02:14:26;5.90;87.90
76996;DHT22;65929;49.062;10.338;2023-04-19T02:15:27;5.90;87.90
76996;DHT22;65929;49.062;10.338;2023-04-19T02:16:28;5.90;87.90
76996;DHT22;65929;49.062;10.338;2023-04-19T02:17:29;5.90;87.90
76996;DHT22;65929;49.062;10.338;2023-04-19T02:18:30;5.90;87.80
76996;DHT22;65929;49.062;10.338;2023-04-19T02:19:31;5.90;88.00
76996;DHT22;65929;49.062;10.338;2023-04-19T02:20:32;5.90;88.00
76996;DHT22;65929;49.062;10.338;2023-04-19T02:21:33;5.90;87.90
76996;DHT22;65929;49.062;10.338;2023-04-19T02:22:34;5.90;87.90
76996;DHT22;65929;49.062;10.338;2023-04-19T02:23:37;5.90;87.90
76996;DHT22;65929;49.062;10.338;2023-04-19T02:24:37;5.90;87.90
76996;DHT22;65929;49.062;10.338;2023-04-19T02:25:38;6.00;87.80
76996;DHT22;65929;49.062;10.338;2023-04-19T02:26:39;5.90;87.80
76996;DHT22;65929;49.062;10.338;2023-04-19T02:27:40;5.90;87.80
76996;DHT22;65929;49.062;10.338;2023-04-19T02:28:41;5.90;87.80
76996;DHT22;65929;49.062;10.338;2023-04-19T02:29:42;5.90;87.80
76996;DHT22;65929;49.062;10.338;2023-04-19T02:30:43;5.90;87.80
76996;DHT22;65929;49.062;10.338;2023-04-19T02:31:44;5.90;87.70
76996;DHT22;65929;49.062;10.338;2023-04-19T02:32:46;6.00;87.60
76996;DHT22;65929;49.062;10.338;2023-04-19T02:33:47;5.90;87.50
76996;DHT22;65929;49.062;10.338;2023-04-19T02:34:48;6.00;87.50
76996;DHT22;65929;49.062;10.338;2023-04-19T02:35:49;5.90;87.50
76996;DHT22;65929;49.062;10.338;2023-04-19T02:36:50;5.90;87.50
76996;DHT22;65929;49.062;10.338;2023-04-19T02:37:51;5.90;87.50
76996;DHT22;65929;49.062;10.338;2023-04-19T02:38:53;5.80;87.50
76996;DHT22;65929;49.062;10.338;2023-04-19T02:39:54;5.80;87.60
76996;DHT22;65929;49.062;10.338;2023-04-19T02:40:55;5.80;87.80
76996;DHT22;65929;49.062;10.338;2023-04-19T02:41:56;5.80;87.90
76996;DHT22;65929;49.062;10.338;2023-04-19T02:42:57;5.70;88.00
76996;DHT22;65929;49.062;10.338;2023-04-19T02:43:58;5.70;88.20
76996;DHT22;65929;49.062;10.338;2023-04-19T02:44:59;5.70;88.20
76996;DHT22;65929;49.062;10.338;2023-04-19T02:46:00;5.60;88.20
76996;DHT22;65929;49.062;10.338;2023-04-19T02:47:01;5.60;88.40
76996;DHT22;65929;49.062;10.338;2023-04-19T02:48:02;5.60;88.50
76996;DHT22;65929;49.062;10.338;2023-04-19T02:49:03;5.60;88.60
76996;DHT22;65929;49.062;10.338;2023-04-19T02:50:06;5.60;88.60
76996;DHT22;65929;49.062;10.338;2023-04-19T02:51:07;5.60;88.70
76996;DHT22;65929;49.062;10.338;2023-04-19T02:52:08;5.60;88.80
76996;DHT22;65929;49.062;10.338;2023-04-19T02:53:09;5.60;88.80
76996;DHT22;65929;49.062;10.338;2023-04-19T02:54:11;5.60;88.80
76996;DHT22;65929;49.062;10.338;2023-04-19T02:55:13;5.60;88.70
76996;DHT22;65929;49.062;10.338;2023-04-19T02:56:13;5.60;88.70
76996;DHT22;65929;49.062;10.338;2023-04-19T02:57:15;5.60;88.70
76996;DHT22;65929;49.062;10.338;2023-04-19T02:58:16;5.70;88.70
76996;DHT22;65929;49.062;10.338;2023-04-19T02:59:18;5.70;88.80
76996;DHT22;65929;49.062;10.338;2023-04-19T03:00:19;5.70;88.70
76996;DHT22;65929;49.062;10.338;2023-04-19T03:01:20;5.70;88.60
76996;DHT22;65929;49.062;10.338;2023-04-19T03:02:21;5.70;88.50
76996;DHT22;65929;49.062;10.338;2023-04-19T03:03:22;5.70;88.50
76996;DHT22;65929;49.062;10.338;2023-04-19T03:04:23;5.70;88.50
76996;DHT22;65929;49.062;10.338;2023-04-19T03:05:23;5.80;88.40
76996;DHT22;65929;49.062;10.338;2023-04-19T03:06:24;5.80;88.40
76996;DHT22;65929;49.062;10.338;2023-04-19T03:07:25;5.80;88.30
76996;DHT22;65929;49.062;10.338;2023-04-19T03:08:26;5.80;88.30
76996;DHT22;65929;49.062;10.338;2023-04-19T03:09:29;5.80;88.20
76996;DHT22;65929;49.062;10.338;2023-04-19T03:10:30;5.80;88.20
76996;DHT22;65929;49.062;10.338;2023-04-19T03:11:31;5.80;88.10
76996;DHT22;65929;49.062;10.338;2023-04-19T03:12:32;5.80;88.00
76996;DHT22;65929;49.062;10.338;2023-04-19T03:13:32;5.80;88.00
76996;DHT22;65929;49.062;10.338;2023-04-19T03:14:33;5.80;87.90
76996;DHT22;65929;49.062;10.338;2023-04-19T03:15:34;5.80;87.90
76996;DHT22;65929;49.062;10.338;2023-04-19T03:16:35;5.70;87.90
76996;DHT22;65929;49.062;10.338;2023-04-19T03:17:37;5.70;87.90
76996;DHT22;65929;49.062;10.338;2023-04-19T03:18:38;5.70;87.90
76996;DHT22;65929;49.062;10.338;2023-04-19T03:19:39;5.70;87.80
76996;DHT22;65929;49.062;10.338;2023-04-19T03:20:40;5.70;88.00
76996;DHT22;65929;49.062;10.338;2023-04-19T03:21:41;5.70;88.10
76996;DHT22;65929;49.062;10.338;2023-04-19T03:22:42;5.70;88.20
76996;DHT22;65929;49.062;10.338;2023-04-19T03:23:43;5.70;88.10
76996;DHT22;65929;49.062;10.338;2023-04-19T03:24:45;5.70;88.00
76996;DHT22;65929;49.062;10.338;2023-04-19T03:25:46;5.70;88.00
76996;DHT22;65929;49.062;10.338;2023-04-19T03:26:47;5.70;88.10
76996;DHT22;65929;49.062;10.338;2023-04-19T03:27:48;5.70;88.10
76996;DHT22;65929;49.062;10.338;2023-04-19T03:28:51;5.70;88.10
76996;DHT22;65929;49.062;10.338;2023-04-19T03:29:52;5.60;88.10
76996;DHT22;65929;49.062;10.338;2023-04-19T03:30:54;5.60;88.30
76996;DHT22;65929;49.062;10.338;2023-04-19T03:31:55;5.60;88.30
76996;DHT22;65929;49.062;10.338;2023-04-19T03:32:56;5.60;88.20
76996;DHT22;65929;49.062;10.338;2023-04-19T03:33:59;5.60;88.40
76996;DHT22;65929;49.062;10.338;2023-04-19T03:35:00;5.70;88.30
76996;DHT22;65929;49.062;10.338;2023-04-19T03:36:01;5.70;88.30
76996;DHT22;65929;49.062;10.338;2023-04-19T03:37:03;5.70;88.20
76996;DHT22;65929;49.062;10.338;2023-04-19T03:38:04;5.70;88.30
76996;DHT22;65929;49.062;10.338;2023-04-19T03:39:05;5.70;88.30
76996;DHT22;65929;49.062;10.338;2023-04-19T03:40:08;5.70;88.30
76996;DHT22;65929;49.062;10.338;2023-04-19T03:41:17;5.70;88.30
76996;DHT22;65929;49.062;10.338;2023-04-19T03:42:18;5.70;88.20
76996;DHT22;65929;49.062;10.338;2023-04-19T03:43:19;5.70;88.10
76996;DHT22;65929;49.062;10.338;2023-04-19T03:44:20;5.70;88.10
76996;DHT22;65929;49.062;10.338;2023-04-19T03:45:21;5.70;88.20
76996;DHT22;65929;49.062;10.338;2023-04-19T03:46:22;5.80;88.20
76996;DHT22;65929;49.062;10.338;2023-04-19T03:47:23;5.80;88.10
76996;DHT22;65929;49.062;10.338;2023-04-19T03:48:24;5.80;88.10
76996;DHT22;65929;49.062;10.338;2023-04-19T03:49:25;5.80;88.20
76996;DHT22;65929;49.062;10.338;2023-04-19T03:50:26;5.80;88.20
76996;DHT22;65929;49.062;10.338;2023-04-19T03:51:27;5.80;88.10
76996;DHT22;65929;49.062;10.338;2023-04-19T03:52:28;5.80;88.20
76996;DHT22;65929;49.062;10.338;2023-04-19T03:53:29;5.80;88.10
76996;DHT22;65929;49.062;10.338;2023-04-19T03:54:29;5.80;88.10
76996;DHT22;65929;49.062;10.338;2023-04-19T03:55:32;5.80;88.10
76996;DHT22;65929;49.062;10.338;2023-04-19T03:56:33;5.80;88.10
76996;DHT22;65929;49.062;10.338;2023-04-19T03:57:34;5.90;88.00
76996;DHT22;65929;49.062;10.338;2023-04-19T03:58:35;5.90;88.00
76996;DHT22;65929;49.062;10.338;2023-04-19T03:59:37;5.90;87.90
76996;DHT22;65929;49.062;10.338;2023-04-19T04:00:37;5.90;87.90
76996;DHT22;65929;49.062;10.338;2023-04-19T04:01:38;5.90;87.90
76996;DHT22;65929;49.062;10.338;2023-04-19T04:02:41;5.90;87.80
76996;DHT22;65929;49.062;10.338;2023-04-19T04:03:42;6.00;87.70
76996;DHT22;65929;49.062;10.338;2023-04-19T04:04:43;6.00;87.60
76996;DHT22;65929;49.062;10.338;2023-04-19T04:05:44;6.00;87.60
76996;DHT22;65929;49.062;10.338;2023-04-19T04:06:45;6.00;87.50
76996;DHT22;65929;49.062;10.338;2023-04-19T04:07:46;6.00;87.50
76996;DHT22;65929;49.062;10.338;2023-04-19T04:08:48;6.00;87.40
76996;DHT22;65929;49.062;10.338;2023-04-19T04:09:49;6.10;87.30
76996;DHT22;65929;49.062;10.338;2023-04-19T04:10:53;6.10;87.30
76996;DHT22;65929;49.062;10.338;2023-04-19T04:11:54;6.10;87.20
76996;DHT22;65929;49.062;10.338;2023-04-19T04:12:55;6.10;87.10
76996;DHT22;65929;49.062;10.338;2023-04-19T04:13:56;6.10;87.00
76996;DHT22;65929;49.062;10.338;2023-04-19T04:14:57;6.10;87.00
76996;DHT22;65929;49.062;10.338;2023-04-19T04:15:58;6.10;86.90
76996;DHT22;65929;49.062;10.338;2023-04-19T04:16:59;6.10;86.90
76996;DHT22;65929;49.062;10.338;2023-04-19T04:18:00;6.10;86.80
76996;DHT22;65929;49.062;10.338;2023-04-19T04:19:01;6.20;86.80
76996;DHT22;65929;49.062;10.338;2023-04-19T04:20:02;6.20;86.70
76996;DHT22;65929;49.062;10.338;2023-04-19T04:21:03;6.20;86.80
76996;DHT22;65929;49.062;10.338;2023-04-19T04:22:05;6.20;86.70
76996;DHT22;65929;49.062;10.338;2023-04-19T04:23:06;6.20;86.70
76996;DHT22;65929;49.062;10.338;2023-04-19T04:24:07;6.20;86.80
76996;DHT22;65929;49.062;10.338;2023-04-19T04:25:09;6.20;86.70
76996;DHT22;65929;49.062;10.338;2023-04-19T04:26:11;6.20;86.80
76996;DHT22;65929;49.062;10.338;2023-04-19T04:27:13;6.20;86.90
76996;DHT22;65929;49.062;10.338;2023-04-19T04:28:14;6.20;86.90
76996;DHT22;65929;49.062;10.338;2023-04-19T04:29:15;6.20;86.90
76996;DHT22;65929;49.062;10.338;2023-04-19T04:30:17;6.20;86.80
76996;DHT22;65929;49.062;10.338;2023-04-19T04:31:18;6.20;86.80
76996;DHT22;65929;49.062;10.338;2023-04-19T04:32:18;6.20;86.80
76996;DHT22;65929;49.062;10.338;2023-04-19T04:33:23;6.10;86.90
76996;DHT22;65929;49.062;10.338;2023-04-19T04:34:25;6.10;86.90
76996;DHT22;65929;49.062;10.338;2023-04-19T04:35:25;6.10;87.00
76996;DHT22;65929;49.062;10.338;2023-04-19T04:36:27;6.10;87.10
76996;DHT22;65929;49.062;10.338;2023-04-19T04:37:31;6.10;87.10
76996;DHT22;65929;49.062;10.338;2023-04-19T04:38:33;6.10;87.20
76996;DHT22;65929;49.062;10.338;2023-04-19T04:39:35;6.10;87.20
76996;DHT22;65929;49.062;10.338;2023-04-19T04:40:38;6.10;87.10
76996;DHT22;65929;49.062;10.338;2023-04-19T04:41:41;6.10;87.30
76996;DHT22;65929;49.062;10.338;2023-04-19T04:42:42;6.10;87.30
76996;DHT22;65929;49.062;10.338;2023-04-19T04:43:45;6.10;87.30
76996;DHT22;65929;49.062;10.338;2023-04-19T04:44:49;6.10;87.30
76996;DHT22;65929;49.062;10.338;2023-04-19T04:45:51;6.20;87.30
76996;DHT22;65929;49.062;10.338;2023-04-19T04:46:51;6.20;87.40
76996;DHT22;65929;49.062;10.338;2023-04-19T04:47:52;6.20;87.30
76996;DHT22;65929;49.062;10.338;2023-04-19T04:48:53;6.20;87.30
76996;DHT22;65929;49.062;10.338;2023-04-19T04:49:54;6.20;87.20
76996;DHT22;65929;49.062;10.338;2023-04-19T04:50:55;6.30;87.10
76996;DHT22;65929;49.062;10.338;2023-04-19T04:51:56;6.30;86.90
76996;DHT22;65929;49.062;10.338;2023-04-19T04:52:57;6.30;86.80
76996;DHT22;65929;49.062;10.338;2023-04-19T04:53:58;6.40;86.70
76996;DHT22;65929;49.062;10.338;2023-04-19T04:54:59;6.40;86.60
76996;DHT22;65929;49.062;10.338;2023-04-19T04:56:00;6.40;86.50
76996;DHT22;65929;49.062;10.338;2023-04-19T04:57:02;6.40;86.50
76996;DHT22;65929;49.062;10.338;2023-04-19T04:58:03;6.40;86.60
76996;DHT22;65929;49.062;10.338;2023-04-19T04:59:07;6.50;86.50
76996;DHT22;65929;49.062;10.338;2023-04-19T05:00:10;6.50;86.40
76996;DHT22;65929;49.062;10.338;2023-04-19T05:01:12;6.50;86.30
76996;DHT22;65929;49.062;10.338;2023-04-19T05:02:13;6.50;86.00
76996;DHT22;65929;49.062;10.338;2023-04-19T05:03:14;6.50;86.20
76996;DHT22;65929;49.062;10.338;2023-04-19T05:04:15;6.50;86.20
76996;DHT22;65929;49.062;10.338;2023-04-19T05:05:16;6.50;86.10
76996;DHT22;65929;49.062;10.338;2023-04-19T05:06:17;6.50;86.10
76996;DHT22;65929;49.062;10.338;2023-04-19T05:07:18;6.50;86.10
76996;DHT22;65929;49.062;10.338;2023-04-19T05:08:19;6.60;86.00
76996;DHT22;65929;49.062;10.338;2023-04-19T05:09:20;6.60;85.90
76996;DHT22;65929;49.062;10.338;2023-04-19T05:10:21;6.60;85.90
76996;DHT22;65929;49.062;10.338;2023-04-19T05:11:21;6.60;85.90
76996;DHT22;65929;49.062;10.338;2023-04-19T05:12:24;6.60;85.80
76996;DHT22;65929;49.062;10.338;2023-04-19T05:13:25;6.70;85.80
76996;DHT22;65929;49.062;10.338;2023-04-19T05:14:26;6.70;85.80
76996;DHT22;65929;49.062;10.338;2023-04-19T05:15:27;6.70;85.60
76996;DHT22;65929;49.062;10.338;2023-04-19T05:16:28;6.70;85.40
76996;DHT22;65929;49.062;10.338;2023-04-19T05:17:29;6.80;85.00
76996;DHT22;65929;49.062;10.338;2023-04-19T05:18:30;6.80;85.00
76996;DHT22;65929;49.062;10.338;2023-04-19T05:19:31;6.80;85.10
76996;DHT22;65929;49.062;10.338;2023-04-19T05:20:32;6.80;85.10
76996;DHT22;65929;49.062;10.338;2023-04-19T05:21:35;6.80;84.90
76996;DHT22;65929;49.062;10.338;2023-04-19T05:22:36;6.90;84.70
76996;DHT22;65929;49.062;10.338;2023-04-19T05:23:37;6.90;84.80
76996;DHT22;65929;49.062;10.338;2023-04-19T05:24:38;6.90;84.50
76996;DHT22;65929;49.062;10.338;2023-04-19T05:25:39;6.90;84.30
76996;DHT22;65929;49.062;10.338;2023-04-19T05:26:40;6.90;84.40
76996;DHT22;65929;49.062;10.338;2023-04-19T05:27:43;6.90;84.60
76996;DHT22;65929;49.062;10.338;2023-04-19T05:28:44;6.90;84.30
76996;DHT22;65929;49.062;10.338;2023-04-19T05:29:48;6.90;84.30
76996;DHT22;65929;49.062;10.338;2023-04-19T05:30:51;6.90;84.20
76996;DHT22;65929;49.062;10.338;2023-04-19T05:31:52;6.90;84.00
76996;DHT22;65929;49.062;10.338;2023-04-19T05:32:53;6.90;84.00
76996;DHT22;65929;49.062;10.338;2023-04-19T05:33:54;6.90;84.20
76996;DHT22;65929;49.062;10.338;2023-04-19T05:34:55;6.90;84.20
76996;DHT22;65929;49.062;10.338;2023-04-19T05:35:56;6.90;84.40
76996;DHT22;65929;49.062;10.338;2023-04-19T05:36:57;7.00;84.40
76996;DHT22;65929;49.062;10.338;2023-04-19T05:37:58;6.90;84.30
76996;DHT22;65929;49.062;10.338;2023-04-19T05:38:58;7.00;84.30
76996;DHT22;65929;49.062;10.338;2023-04-19T05:39:59;7.00;84.20
76996;DHT22;65929;49.062;10.338;2023-04-19T05:41:01;7.00;84.20
76996;DHT22;65929;49.062;10.338;2023-04-19T05:42:02;7.00;83.80
76996;DHT22;65929;49.062;10.338;2023-04-19T05:43:04;7.00;84.00
76996;DHT22;65929;49.062;10.338;2023-04-19T05:44:06;7.00;84.10
76996;DHT22;65929;49.062;10.338;2023-04-19T05:45:07;7.10;84.00
76996;DHT22;65929;49.062;10.338;2023-04-19T05:46:08;7.20;83.90
76996;DHT22;65929;49.062;10.338;2023-04-19T05:47:09;7.20;83.50
76996;DHT22;65929;49.062;10.338;2023-04-19T05:48:11;7.20;83.40
76996;DHT22;65929;49.062;10.338;2023-04-19T05:49:12;7.20;83.00
76996;DHT22;65929;49.062;10.338;2023-04-19T05:50:12;7.20;83.00
76996;DHT22;65929;49.062;10.338;2023-04-19T05:51:17;7.30;83.00
76996;DHT22;65929;49.062;10.338;2023-04-19T05:52:18;7.20;83.00
76996;DHT22;65929;49.062;10.338;2023-04-19T05:53:19;7.20;83.10
76996;DHT22;65929;49.062;10.338;2023-04-19T05:54:20;7.20;83.30
76996;DHT22;65929;49.062;10.338;2023-04-19T05:55:24;7.30;83.30
76996;DHT22;65929;49.062;10.338;2023-04-19T05:56:25;7.30;83.20
76996;DHT22;65929;49.062;10.338;2023-04-19T05:57:26;7.30;83.20
76996;DHT22;65929;49.062;10.338;2023-04-19T05:58:29;7.40;83.30
76996;DHT22;65929;49.062;10.338;2023-04-19T05:59:29;7.40;83.00
76996;DHT22;65929;49.062;10.338;2023-04-19T06:00:31;7.40;82.80
76996;DHT22;65929;49.062;10.338;2023-04-19T06:01:32;7.40;82.90
76996;DHT22;65929;49.062;10.338;2023-04-19T06:02:33;7.40;83.20
76996;DHT22;65929;49.062;10.338;2023-04-19T06:03:37;7.40;83.10
76996;DHT22;65929;49.062;10.338;2023-04-19T06:04:37;7.40;83.00
76996;DHT22;65929;49.062;10.338;2023-04-19T06:05:38;7.50;82.80
76996;DHT22;65929;49.062;10.338;2023-04-19T06:06:40;7.50;83.00
76996;DHT22;65929;49.062;10.338;2023-04-19T06:07:41;7.50;83.00
76996;DHT22;65929;49.062;10.338;2023-04-19T06:08:42;7.50;83.00
76996;DHT22;65929;49.062;10.338;2023-04-19T06:09:43;7.50;83.00
76996;DHT22;65929;49.062;10.338;2023-04-19T06:10:44;7.50;82.90
76996;DHT22;65929;49.062;10.338;2023-04-19T06:11:49;7.50;82.80
76996;DHT22;65929;49.062;10.338;2023-04-19T06:12:50;7.60;82.90
76996;DHT22;65929;49.062;10.338;2023-04-19T06:13:52;7.60;82.90
76996;DHT22;65929;49.062;10.338;2023-04-19T06:14:53;7.60;82.80
76996;DHT22;65929;49.062;10.338;2023-04-19T06:15:54;7.70;82.70
76996;DHT22;65929;49.062;10.338;2023-04-19T06:16:55;7.80;82.60
76996;DHT22;65929;49.062;10.338;2023-04-19T06:17:56;7.80;82.50
76996;DHT22;65929;49.062;10.338;2023-04-19T06:18:57;7.80;82.30
76996;DHT22;65929;49.062;10.338;2023-04-19T06:19:58;7.80;82.20
76996;DHT22;65929;49.062;10.338;2023-04-19T06:20:59;7.80;82.40
76996;DHT22;65929;49.062;10.338;2023-04-19T06:22:00;7.80;82.30
76996;DHT22;65929;49.062;10.338;2023-04-19T06:23:02;7.90;82.30
76996;DHT22;65929;49.062;10.338;2023-04-19T06:24:04;7.90;82.10
76996;DHT22;65929;49.062;10.338;2023-04-19T06:25:05;8.00;81.80
76996;DHT22;65929;49.062;10.338;2023-04-19T06:26:06;8.00;81.80
76996;DHT22;65929;49.062;10.338;2023-04-19T06:27:07;8.00;81.60
76996;DHT22;65929;49.062;10.338;2023-04-19T06:28:08;8.00;81.50